createdAt,value
2018-03-18T00:00:43.727Z,3.50
2018-03-18T00:02:36.975Z,3.20
2018-03-18T00:03:36.898Z,4.40
2018-03-18T00:05:30.163Z,3.10
2018-03-18T00:06:30.069Z,3.70
2018-03-18T00:08:23.336Z,4.10
2018-03-18T00:09:23.240Z,4.10
2018-03-18T00:11:16.602Z,3.70
2018-03-18T00:12:16.411Z,3.50
2018-03-18T00:14:09.792Z,3.50
2018-03-18T00:15:09.582Z,3.40
2018-03-18T00:17:02.945Z,3.00
2018-03-18T00:18:02.743Z,3.40
2018-03-18T00:19:56.010Z,4.50
2018-03-18T00:20:55.921Z,4.40
2018-03-18T00:22:49.162Z,4.40
2018-03-18T00:23:49.085Z,4.00
2018-03-18T00:25:42.468Z,3.70
2018-03-18T00:26:42.266Z,3.80
2018-03-18T00:28:35.503Z,3.10
2018-03-18T00:29:35.428Z,3.30
2018-03-18T00:31:28.693Z,3.40
2018-03-18T00:32:28.598Z,3.50
2018-03-18T00:34:21.869Z,3.80
2018-03-18T00:35:21.769Z,3.90
2018-03-18T00:37:15.008Z,4.20
2018-03-18T00:38:14.931Z,3.40
2018-03-18T00:40:08.201Z,4.30
2018-03-18T00:41:08.109Z,4.60
2018-03-18T00:43:01.348Z,4.50
2018-03-18T00:44:01.272Z,4.70
2018-03-18T00:45:54.654Z,3.90
2018-03-18T00:46:54.443Z,3.40
2018-03-18T00:48:47.691Z,4.10
2018-03-18T00:49:47.614Z,4.10
2018-03-18T00:51:40.879Z,4.00
2018-03-18T00:52:40.784Z,4.10
2018-03-18T00:54:34.165Z,3.50
2018-03-18T00:55:33.954Z,3.90
2018-03-18T00:57:27.194Z,3.20
2018-03-18T00:58:27.117Z,3.70
2018-03-18T01:00:20.496Z,3.30
2018-03-18T01:01:20.297Z,4.10
2018-03-18T01:03:13.535Z,3.80
2018-03-18T01:04:13.461Z,3.60
2018-03-18T01:06:06.725Z,4.50
2018-03-18T01:07:06.631Z,4.40
2018-03-18T01:08:59.878Z,4.40
2018-03-18T01:09:59.801Z,4.80
2018-03-18T01:11:53.066Z,4.30
2018-03-18T01:12:52.972Z,3.70
2018-03-18T01:14:46.364Z,4.50
2018-03-18T01:15:46.143Z,3.90
2018-03-18T01:17:39.389Z,3.00
2018-03-18T01:18:39.312Z,3.40
2018-03-18T01:20:32.694Z,4.90
2018-03-18T01:21:32.483Z,3.80
2018-03-18T01:23:25.732Z,4.30
2018-03-18T01:24:25.655Z,4.20
2018-03-18T01:26:19.033Z,4.30
2018-03-18T01:27:18.822Z,4.20
2018-03-18T01:29:12.073Z,3.60
2018-03-18T01:30:11.995Z,3.10
2018-03-18T01:32:05.261Z,3.90
2018-03-18T01:33:05.164Z,4.30
2018-03-18T01:34:58.441Z,4.30
2018-03-18T01:35:58.335Z,3.70
2018-03-18T01:37:51.601Z,3.70
2018-03-18T01:38:51.505Z,3.80
2018-03-18T01:40:44.886Z,3.60
2018-03-18T01:41:44.676Z,3.70
2018-03-18T01:43:37.927Z,3.80
2018-03-18T01:44:37.850Z,4.20
2018-03-18T01:46:31.105Z,3.50
2018-03-18T01:47:31.010Z,3.10
2018-03-18T01:49:24.372Z,3.90
2018-03-18T01:50:24.221Z,3.70
2018-03-18T01:52:17.600Z,4.80
2018-03-18T01:53:17.392Z,3.80
2018-03-18T01:55:10.758Z,3.20
2018-03-18T01:56:10.559Z,3.00
2018-03-18T01:58:03.940Z,4.00
2018-03-18T01:59:03.735Z,4.10
2018-03-18T02:00:57.000Z,4.30
2018-03-18T02:01:56.898Z,3.90
2018-03-18T02:03:50.148Z,4.40
2018-03-18T02:04:50.071Z,4.60
2018-03-18T02:06:43.326Z,4.30
2018-03-18T02:07:43.228Z,4.50
2018-03-18T02:09:36.593Z,4.50
2018-03-18T02:10:36.403Z,4.40
2018-03-18T02:12:29.784Z,4.10
2018-03-18T02:13:29.574Z,4.50
2018-03-18T02:15:23.822Z,4.40
2018-03-18T02:16:23.742Z,4.20
2018-03-18T02:18:17.013Z,3.90
2018-03-18T02:19:16.917Z,4.40
2018-03-18T02:21:10.178Z,4.40
2018-03-18T02:22:10.083Z,4.20
2018-03-18T02:24:03.330Z,4.30
2018-03-18T02:25:03.255Z,4.60
2018-03-18T02:26:56.510Z,4.50
2018-03-18T02:27:56.417Z,4.30
2018-03-18T02:29:49.778Z,4.40
2018-03-18T02:30:49.584Z,4.70
2018-03-18T02:32:42.854Z,4.80
2018-03-18T02:33:42.754Z,4.10
2018-03-18T02:35:36.002Z,5.00
2018-03-18T02:36:35.926Z,4.80
2018-03-18T02:38:29.306Z,4.50
2018-03-18T02:39:29.095Z,4.80
2018-03-18T02:41:22.342Z,4.30
2018-03-18T02:42:22.264Z,4.10
2018-03-18T02:44:15.647Z,4.70
2018-03-18T02:45:15.435Z,4.60
2018-03-18T02:47:08.816Z,4.00
2018-03-18T02:48:08.597Z,4.30
2018-03-18T02:50:01.845Z,4.20
2018-03-18T02:51:01.771Z,3.80
2018-03-18T02:52:55.145Z,3.70
2018-03-18T02:53:54.949Z,4.20
2018-03-18T02:55:48.183Z,4.20
2018-03-18T02:56:48.107Z,3.00
2018-03-18T02:58:41.371Z,4.40
2018-03-18T02:59:41.276Z,3.90
2018-03-18T03:01:34.636Z,4.30
2018-03-18T03:02:34.447Z,4.30
2018-03-18T03:04:27.711Z,4.30
2018-03-18T03:05:27.618Z,4.40
2018-03-18T03:07:20.882Z,4.40
2018-03-18T03:08:20.786Z,4.60
2018-03-18T03:10:14.034Z,4.70
2018-03-18T03:11:13.956Z,4.00
2018-03-18T03:13:07.334Z,4.20
2018-03-18T03:14:07.126Z,4.00
2018-03-18T03:16:00.487Z,4.40
2018-03-18T03:17:00.296Z,4.60
2018-03-18T03:18:53.560Z,4.50
2018-03-18T03:19:53.464Z,4.40
2018-03-18T03:21:46.711Z,4.30
2018-03-18T03:22:46.635Z,4.30
2018-03-18T03:24:39.900Z,4.00
2018-03-18T03:25:39.805Z,4.30
2018-03-18T03:27:33.077Z,4.80
2018-03-18T03:28:32.975Z,4.60
2018-03-18T03:30:26.338Z,4.30
2018-03-18T03:31:26.150Z,4.30
2018-03-18T03:33:19.533Z,4.00
2018-03-18T03:34:19.315Z,3.40
2018-03-18T03:36:12.676Z,4.30
2018-03-18T03:37:12.480Z,4.60
2018-03-18T03:39:05.861Z,4.30
2018-03-18T03:40:05.652Z,4.50
2018-03-18T03:41:59.013Z,4.60
2018-03-18T03:42:58.822Z,4.30
2018-03-18T03:44:52.092Z,4.40
2018-03-18T03:45:51.991Z,4.60
2018-03-18T03:47:45.237Z,3.80
2018-03-18T03:48:45.162Z,4.60
2018-03-18T03:50:38.426Z,4.60
2018-03-18T03:51:38.333Z,4.20
2018-03-18T03:53:31.713Z,4.00
2018-03-18T03:54:31.501Z,4.30
2018-03-18T03:56:24.867Z,4.50
2018-03-18T03:57:24.673Z,4.40
2018-03-18T03:59:18.054Z,5.00
2018-03-18T04:00:17.841Z,4.40
2018-03-18T04:02:11.203Z,4.50
2018-03-18T04:03:11.010Z,3.80
2018-03-18T04:05:04.316Z,4.90
2018-03-18T04:06:04.226Z,4.30
2018-03-18T04:07:57.582Z,4.50
2018-03-18T04:08:57.389Z,4.00
2018-03-18T04:10:50.653Z,4.70
2018-03-18T04:11:50.559Z,4.60
2018-03-18T04:13:43.920Z,4.50
2018-03-18T04:14:43.727Z,3.90
2018-03-18T04:16:36.984Z,4.70
2018-03-18T04:17:36.887Z,3.70
2018-03-18T04:19:30.153Z,4.50
2018-03-18T04:20:30.058Z,4.40
2018-03-18T04:22:23.418Z,4.30
2018-03-18T04:23:23.227Z,4.20
2018-03-18T04:25:16.497Z,4.10
2018-03-18T04:26:16.394Z,3.70
2018-03-18T04:28:09.642Z,4.50
2018-03-18T04:29:09.563Z,4.50
2018-03-18T04:31:02.828Z,3.70
2018-03-18T04:32:02.734Z,3.20
2018-03-18T04:33:55.998Z,4.40
2018-03-18T04:34:55.901Z,4.70
2018-03-18T04:36:49.282Z,4.40
2018-03-18T04:37:49.064Z,4.00
2018-03-18T04:39:42.447Z,4.90
2018-03-18T04:40:42.234Z,4.60
2018-03-18T04:42:35.594Z,4.00
2018-03-18T04:43:35.403Z,3.90
2018-03-18T04:45:28.782Z,4.80
2018-03-18T04:46:28.572Z,4.30
2018-03-18T04:48:21.820Z,4.40
2018-03-18T04:49:21.743Z,4.70
2018-03-18T04:51:15.004Z,4.10
2018-03-18T04:52:14.910Z,4.70
2018-03-18T04:54:08.157Z,4.50
2018-03-18T04:55:08.080Z,4.70
2018-03-18T04:57:01.460Z,4.60
2018-03-18T04:58:01.240Z,4.50
2018-03-18T04:59:54.486Z,4.10
2018-03-18T05:00:54.407Z,4.10
2018-03-18T05:02:47.787Z,4.40
2018-03-18T05:03:47.577Z,4.20
2018-03-18T05:05:40.840Z,4.40
2018-03-18T05:06:40.744Z,3.50
2018-03-18T05:08:33.991Z,5.00
2018-03-18T05:09:33.915Z,4.10
2018-03-18T05:11:27.178Z,4.40
2018-03-18T05:12:27.082Z,4.70
2018-03-18T05:14:20.444Z,5.10
2018-03-18T05:15:20.251Z,4.30
2018-03-18T05:17:13.508Z,4.80
2018-03-18T05:18:13.411Z,4.60
2018-03-18T05:20:06.647Z,5.00
2018-03-18T05:21:06.574Z,5.00
2018-03-18T05:22:59.825Z,4.60
2018-03-18T05:23:59.729Z,5.10
2018-03-18T05:25:53.122Z,5.30
2018-03-18T05:26:52.904Z,4.80
2018-03-18T05:28:46.133Z,4.70
2018-03-18T05:29:46.055Z,4.70
2018-03-18T05:31:39.319Z,4.60
2018-03-18T05:32:39.223Z,4.20
2018-03-18T05:34:32.585Z,4.40
2018-03-18T05:35:32.386Z,4.50
2018-03-18T05:37:25.766Z,4.40
2018-03-18T05:38:25.545Z,3.70
2018-03-18T05:40:18.792Z,4.70
2018-03-18T05:41:18.715Z,4.30
2018-03-18T05:43:11.980Z,3.70
2018-03-18T05:44:11.887Z,4.80
2018-03-18T05:46:05.247Z,5.00
2018-03-18T05:47:05.052Z,4.70
2018-03-18T05:48:58.315Z,4.50
2018-03-18T05:49:58.218Z,4.60
2018-03-18T05:51:51.579Z,4.20
2018-03-18T05:52:51.379Z,4.60
2018-03-18T05:54:44.643Z,5.00
2018-03-18T05:55:44.546Z,5.20
2018-03-18T05:57:37.825Z,4.90
2018-03-18T05:58:37.716Z,4.40
2018-03-18T06:00:31.085Z,4.80
2018-03-18T06:01:30.884Z,4.70
2018-03-18T06:03:24.149Z,4.50
2018-03-18T06:04:24.051Z,3.70
2018-03-18T06:06:17.306Z,4.50
2018-03-18T06:07:17.223Z,4.10
2018-03-18T06:09:10.487Z,4.90
2018-03-18T06:10:10.391Z,5.00
2018-03-18T06:12:03.640Z,4.60
2018-03-18T06:13:03.559Z,4.60
2018-03-18T06:14:56.838Z,4.10
2018-03-18T06:15:56.730Z,4.60
2018-03-18T06:17:49.980Z,4.60
2018-03-18T06:18:49.901Z,5.00
2018-03-18T06:20:43.167Z,4.50
2018-03-18T06:21:43.070Z,4.40
2018-03-18T06:23:36.317Z,4.60
2018-03-18T06:24:36.240Z,4.80
2018-03-18T06:26:29.496Z,4.40
2018-03-18T06:27:29.402Z,4.80
2018-03-18T06:29:22.678Z,3.20
2018-03-18T06:30:22.569Z,3.40
2018-03-18T06:32:15.819Z,4.40
2018-03-18T06:33:15.739Z,4.80
2018-03-18T06:35:08.996Z,4.90
2018-03-18T06:36:08.898Z,5.10
2018-03-18T06:38:02.135Z,4.10
2018-03-18T06:39:02.059Z,4.70
2018-03-18T06:40:55.439Z,3.90
2018-03-18T06:41:55.216Z,4.90
2018-03-18T06:43:48.578Z,5.00
2018-03-18T06:44:48.376Z,4.60
2018-03-18T06:46:41.633Z,5.40
2018-03-18T06:47:41.571Z,5.20
2018-03-18T06:49:34.898Z,4.90
2018-03-18T06:50:34.695Z,5.00
2018-03-18T06:52:28.078Z,4.30
2018-03-18T06:53:27.856Z,4.50
2018-03-18T06:55:21.102Z,4.90
2018-03-18T06:56:21.026Z,5.20
2018-03-18T06:58:14.317Z,4.50
2018-03-18T06:59:14.221Z,4.40
2018-03-18T07:01:07.497Z,4.80
2018-03-18T07:02:07.389Z,4.80
2018-03-18T07:04:00.750Z,4.90
2018-03-18T07:05:00.557Z,5.10
2018-03-18T07:06:53.815Z,4.50
2018-03-18T07:07:53.720Z,5.00
2018-03-18T07:09:46.970Z,4.90
2018-03-18T07:10:46.890Z,4.60
2018-03-18T07:12:40.270Z,4.60
2018-03-18T07:13:40.061Z,4.60
2018-03-18T07:15:33.420Z,4.00
2018-03-18T07:16:33.232Z,4.20
2018-03-18T07:18:26.613Z,4.80
2018-03-18T07:19:26.400Z,4.70
2018-03-18T07:21:19.763Z,5.20
2018-03-18T07:22:19.558Z,4.70
2018-03-18T07:24:12.940Z,4.60
2018-03-18T07:25:12.725Z,4.40
2018-03-18T07:27:06.972Z,5.00
2018-03-18T07:28:06.878Z,4.60
2018-03-18T07:30:00.114Z,4.90
2018-03-18T07:31:00.038Z,4.80
2018-03-18T07:32:53.419Z,5.00
2018-03-18T07:33:53.197Z,4.10
2018-03-18T07:35:46.442Z,4.20
2018-03-18T07:36:46.372Z,4.70
2018-03-18T07:38:39.707Z,5.20
2018-03-18T07:39:39.538Z,4.70
2018-03-18T07:41:32.790Z,3.50
2018-03-18T07:42:32.710Z,4.00
2018-03-18T07:44:25.971Z,3.70
2018-03-18T07:45:25.880Z,4.00
2018-03-18T07:47:19.274Z,3.40
2018-03-18T07:48:19.039Z,3.80
2018-03-18T07:50:12.320Z,4.80
2018-03-18T07:51:12.218Z,5.40
2018-03-18T07:53:05.465Z,4.70
2018-03-18T07:54:05.388Z,4.40
2018-03-18T07:55:58.656Z,5.20
2018-03-18T07:56:58.560Z,4.20
2018-03-18T07:58:51.829Z,3.20
2018-03-18T07:59:51.743Z,3.60
2018-03-18T08:01:46.093Z,4.30
2018-03-18T08:02:45.899Z,4.70
2018-03-18T08:04:39.165Z,3.90
2018-03-18T08:05:39.071Z,3.30
2018-03-18T08:07:33.431Z,4.40
2018-03-18T08:08:33.236Z,4.90
2018-03-18T08:10:26.493Z,3.40
2018-03-18T08:11:26.399Z,4.00
2018-03-18T08:13:19.644Z,4.70
2018-03-18T08:14:19.569Z,4.90
2018-03-18T08:16:12.953Z,4.80
2018-03-18T08:17:12.738Z,4.50
2018-03-18T08:19:06.102Z,4.80
2018-03-18T08:20:05.910Z,4.50
2018-03-18T08:21:59.173Z,4.80
2018-03-18T08:22:59.079Z,4.40
2018-03-18T08:24:52.359Z,4.60
2018-03-18T08:25:52.250Z,4.70
2018-03-18T08:27:45.490Z,5.10
2018-03-18T08:28:45.411Z,4.90
2018-03-18T08:30:38.792Z,4.50
2018-03-18T08:31:38.600Z,4.60
2018-03-18T08:33:31.846Z,4.50
2018-03-18T08:34:31.755Z,4.60
2018-03-18T08:36:25.022Z,4.50
2018-03-18T08:37:24.928Z,4.80
2018-03-18T08:39:18.177Z,4.60
2018-03-18T08:40:18.101Z,4.40
2018-03-18T08:42:11.482Z,4.50
2018-03-18T08:43:11.275Z,4.70
2018-03-18T08:45:04.522Z,4.60
2018-03-18T08:46:04.444Z,4.40
2018-03-18T08:47:57.715Z,4.80
2018-03-18T08:48:57.619Z,4.30
2018-03-18T08:50:50.886Z,4.50
2018-03-18T08:51:50.801Z,4.20
2018-03-18T08:53:44.042Z,4.30
2018-03-18T08:54:43.964Z,4.60
2018-03-18T08:56:37.225Z,4.10
2018-03-18T08:57:37.129Z,4.70
2018-03-18T08:59:30.378Z,4.30
2018-03-18T09:00:30.302Z,4.50
2018-03-18T09:02:23.570Z,3.10
2018-03-18T09:03:23.474Z,3.30
2018-03-18T09:05:16.858Z,4.00
2018-03-18T09:06:16.646Z,3.70
2018-03-18T09:08:10.009Z,4.90
2018-03-18T09:09:09.807Z,4.60
2018-03-18T09:11:03.067Z,4.60
2018-03-18T09:12:02.969Z,4.50
2018-03-18T09:13:56.351Z,3.70
2018-03-18T09:14:56.141Z,4.50
2018-03-18T09:16:49.523Z,4.30
2018-03-18T09:17:49.341Z,4.70
2018-03-18T09:19:42.669Z,4.70
2018-03-18T09:20:42.478Z,4.80
2018-03-18T09:22:35.746Z,4.50
2018-03-18T09:23:35.652Z,3.50
2018-03-18T09:25:29.015Z,2.80
2018-03-18T09:26:28.826Z,4.10
2018-03-18T09:28:22.205Z,4.20
2018-03-18T09:29:21.991Z,4.70
2018-03-18T09:31:15.235Z,3.90
2018-03-18T09:32:15.163Z,4.10
2018-03-18T09:34:08.428Z,4.00
2018-03-18T09:35:08.333Z,3.70
2018-03-18T09:37:01.696Z,4.20
2018-03-18T09:38:01.498Z,4.20
2018-03-18T09:39:54.764Z,3.60
2018-03-18T09:40:54.670Z,3.50
2018-03-18T09:42:47.921Z,3.60
2018-03-18T09:43:47.843Z,4.50
2018-03-18T09:45:41.111Z,4.10
2018-03-18T09:46:41.017Z,3.00
2018-03-18T09:48:34.316Z,3.80
2018-03-18T09:49:34.219Z,3.70
2018-03-18T09:51:27.470Z,3.90
2018-03-18T09:52:27.394Z,4.70
2018-03-18T09:54:20.664Z,3.60
2018-03-18T09:55:20.569Z,4.30
2018-03-18T09:57:13.931Z,4.40
2018-03-18T09:58:13.733Z,3.70
2018-03-18T10:00:07.003Z,4.60
2018-03-18T10:01:06.913Z,3.80
2018-03-18T10:03:00.161Z,3.60
2018-03-18T10:04:00.085Z,4.00
2018-03-18T10:05:54.204Z,4.20
2018-03-18T10:06:54.111Z,4.50
2018-03-18T10:08:47.358Z,4.10
2018-03-18T10:09:47.284Z,3.90
2018-03-18T10:11:40.667Z,4.00
2018-03-18T10:12:40.459Z,4.20
2018-03-18T10:14:33.711Z,3.90
2018-03-18T10:15:33.635Z,4.50
2018-03-18T10:17:27.018Z,3.60
2018-03-18T10:18:26.802Z,4.50
2018-03-18T10:20:20.206Z,4.00
2018-03-18T10:21:19.978Z,2.60
2018-03-18T10:23:13.232Z,4.40
2018-03-18T10:24:13.154Z,3.80
2018-03-18T10:26:06.536Z,4.20
2018-03-18T10:27:06.331Z,3.50
2018-03-18T10:28:59.695Z,3.60
2018-03-18T10:29:59.506Z,3.70
2018-03-18T10:31:52.889Z,4.10
2018-03-18T10:32:52.684Z,3.90
2018-03-18T10:34:46.049Z,3.70
2018-03-18T10:35:45.860Z,3.50
2018-03-18T10:37:39.131Z,3.30
2018-03-18T10:38:39.037Z,3.00
2018-03-18T10:40:32.298Z,4.10
2018-03-18T10:41:32.223Z,3.80
2018-03-18T10:43:25.491Z,3.60
2018-03-18T10:44:25.436Z,2.70
2018-03-18T10:46:18.648Z,3.60
2018-03-18T10:47:18.573Z,3.10
2018-03-18T10:49:11.840Z,3.70
2018-03-18T10:50:11.748Z,3.60
2018-03-18T10:52:05.026Z,3.20
2018-03-18T10:53:04.927Z,3.60
2018-03-18T10:54:58.288Z,2.60
2018-03-18T10:55:58.089Z,2.80
2018-03-18T10:57:51.358Z,3.50
2018-03-18T10:58:51.265Z,3.00
2018-03-18T11:00:44.518Z,2.90
2018-03-18T11:01:44.441Z,2.80
2018-03-18T11:03:37.707Z,3.30
2018-03-18T11:04:37.618Z,3.60
2018-03-18T11:06:30.980Z,2.20
2018-03-18T11:07:30.781Z,2.80
2018-03-18T11:09:24.057Z,3.30
2018-03-18T11:10:23.959Z,3.10
2018-03-18T11:12:17.251Z,3.70
2018-03-18T11:13:17.138Z,3.20
2018-03-18T11:15:10.398Z,3.50
2018-03-18T11:16:10.329Z,3.20
2018-03-18T11:18:03.573Z,3.90
2018-03-18T11:19:03.480Z,4.10
2018-03-18T11:20:56.739Z,2.90
2018-03-18T11:21:56.664Z,3.00
2018-03-18T11:23:49.947Z,3.70
2018-03-18T11:24:49.830Z,3.50
2018-03-18T11:26:43.194Z,3.70
2018-03-18T11:27:42.997Z,3.30
2018-03-18T11:29:37.380Z,3.10
2018-03-18T11:30:37.187Z,3.60
2018-03-18T11:32:30.442Z,3.50
2018-03-18T11:33:30.364Z,3.80
2018-03-18T11:35:23.632Z,3.40
2018-03-18T11:36:23.540Z,2.50
2018-03-18T11:38:16.791Z,3.40
2018-03-18T11:39:16.717Z,3.30
2018-03-18T11:41:09.986Z,2.30
2018-03-18T11:42:09.893Z,2.50
2018-03-18T11:44:03.168Z,2.30
2018-03-18T11:45:03.072Z,2.90
2018-03-18T11:46:56.311Z,3.10
2018-03-18T11:47:56.236Z,2.70
2018-03-18T11:49:49.616Z,3.30
2018-03-18T11:50:49.412Z,2.40
2018-03-18T11:52:42.688Z,2.40
2018-03-18T11:53:42.585Z,2.30
2018-03-18T11:55:35.862Z,2.80
2018-03-18T11:56:35.766Z,3.00
2018-03-18T11:58:29.024Z,3.20
2018-03-18T11:59:28.942Z,3.20
2018-03-18T12:01:22.325Z,2.90
2018-03-18T12:02:22.118Z,2.20
2018-03-18T12:04:15.370Z,3.30
2018-03-18T12:05:15.293Z,3.20
2018-03-18T12:07:08.553Z,2.30
2018-03-18T12:08:08.460Z,2.70
2018-03-18T12:10:01.708Z,3.10
2018-03-18T12:11:01.632Z,3.30
2018-03-18T12:12:54.905Z,3.20
2018-03-18T12:13:54.807Z,2.70
2018-03-18T12:15:49.059Z,2.90
2018-03-18T12:16:48.982Z,2.10
2018-03-18T12:18:42.319Z,2.30
2018-03-18T12:19:42.258Z,3.50
2018-03-18T12:21:35.489Z,3.30
2018-03-18T12:22:35.397Z,3.00
2018-03-18T12:24:28.647Z,3.00
2018-03-18T12:25:28.571Z,3.10
2018-03-18T12:27:21.954Z,2.90
2018-03-18T12:28:21.737Z,2.30
2018-03-18T12:30:15.982Z,2.90
2018-03-18T12:31:15.912Z,3.50
2018-03-18T12:33:09.184Z,3.10
2018-03-18T12:34:09.089Z,3.30
2018-03-18T12:36:02.342Z,2.40
2018-03-18T12:37:02.265Z,3.10
2018-03-18T12:38:55.647Z,2.90
2018-03-18T12:39:55.441Z,2.60
2018-03-18T12:41:48.690Z,3.10
2018-03-18T12:42:48.617Z,2.80
2018-03-18T12:44:41.888Z,2.40
2018-03-18T12:45:41.793Z,2.90
2018-03-18T12:47:35.158Z,2.80
2018-03-18T12:48:34.969Z,3.10
2018-03-18T12:50:28.351Z,3.10
2018-03-18T12:51:28.150Z,2.90
2018-03-18T12:53:21.411Z,2.00
2018-03-18T12:54:21.319Z,2.90
2018-03-18T12:56:14.569Z,2.80
2018-03-18T12:57:14.495Z,3.00
2018-03-18T12:59:07.771Z,2.30
2018-03-18T13:00:07.673Z,2.50
2018-03-18T13:02:00.921Z,2.50
2018-03-18T13:03:00.844Z,2.90
2018-03-18T13:04:54.117Z,3.00
2018-03-18T13:05:54.038Z,2.90
2018-03-18T13:07:47.272Z,3.10
2018-03-18T13:08:47.196Z,3.10
2018-03-18T13:10:40.466Z,3.00
2018-03-18T13:11:40.371Z,2.80
2018-03-18T13:13:33.735Z,3.00
2018-03-18T13:14:33.548Z,3.60
2018-03-18T13:16:26.931Z,2.90
2018-03-18T13:17:26.723Z,3.00
2018-03-18T13:19:19.972Z,2.90
2018-03-18T13:20:19.895Z,2.80
2018-03-18T13:22:13.165Z,2.50
2018-03-18T13:23:13.073Z,2.50
2018-03-18T13:25:06.344Z,1.90
2018-03-18T13:26:06.250Z,2.10
2018-03-18T13:27:59.500Z,3.10
2018-03-18T13:28:59.425Z,3.40
2018-03-18T13:30:52.695Z,2.90
2018-03-18T13:31:52.600Z,3.10
2018-03-18T13:33:45.964Z,2.50
2018-03-18T13:34:45.774Z,2.00
2018-03-18T13:36:39.036Z,2.90
2018-03-18T13:37:38.943Z,3.20
2018-03-18T13:39:32.192Z,2.80
2018-03-18T13:40:32.117Z,2.60
2018-03-18T13:42:25.500Z,2.60
2018-03-18T13:43:25.295Z,2.70
2018-03-18T13:45:18.549Z,1.70
2018-03-18T13:46:18.471Z,1.80
2018-03-18T13:48:11.854Z,1.90
2018-03-18T13:49:11.646Z,2.10
2018-03-18T13:51:05.010Z,2.30
2018-03-18T13:52:04.823Z,2.60
2018-03-18T13:53:58.093Z,2.60
2018-03-18T13:54:57.998Z,2.30
2018-03-18T13:56:51.281Z,3.20
2018-03-18T13:57:51.168Z,3.10
2018-03-18T13:59:44.530Z,2.60
2018-03-18T14:00:44.341Z,1.60
2018-03-18T14:02:37.610Z,2.80
2018-03-18T14:03:37.517Z,2.10
2018-03-18T14:05:30.885Z,3.00
2018-03-18T14:06:30.693Z,2.60
2018-03-18T14:08:23.965Z,2.30
2018-03-18T14:09:23.869Z,2.90
2018-03-18T14:11:17.233Z,2.40
2018-03-18T14:12:17.044Z,2.50
2018-03-18T14:14:10.428Z,2.80
2018-03-18T14:15:10.220Z,2.90
2018-03-18T14:17:03.463Z,3.10
2018-03-18T14:18:03.387Z,2.70
2018-03-18T14:19:56.657Z,2.70
2018-03-18T14:20:56.564Z,3.00
2018-03-18T14:22:49.834Z,3.10
2018-03-18T14:23:49.739Z,3.10
2018-03-18T14:25:42.989Z,3.50
2018-03-18T14:26:42.914Z,3.40
2018-03-18T14:28:36.185Z,3.20
2018-03-18T14:29:36.093Z,3.20
2018-03-18T14:31:29.513Z,2.90
2018-03-18T14:32:29.269Z,3.00
2018-03-18T14:34:22.653Z,3.20
2018-03-18T14:35:22.449Z,3.20
2018-03-18T14:37:15.694Z,3.00
2018-03-18T14:38:15.623Z,3.10
2018-03-18T14:40:09.000Z,3.20
2018-03-18T14:41:08.796Z,3.80
2018-03-18T14:43:02.160Z,2.60
2018-03-18T14:44:01.972Z,2.80
2018-03-18T14:45:55.356Z,2.80
2018-03-18T14:46:55.151Z,3.10
2018-03-18T14:48:48.402Z,2.20
2018-03-18T14:49:48.328Z,3.00
2018-03-18T14:51:41.598Z,3.30
2018-03-18T14:52:41.515Z,3.50
2018-03-18T14:54:34.761Z,3.70
2018-03-18T14:55:34.684Z,3.40
2018-03-18T14:57:28.068Z,3.30
2018-03-18T14:58:27.874Z,3.60
2018-03-18T15:00:21.152Z,3.30
2018-03-18T15:01:21.040Z,3.60
2018-03-18T15:03:15.290Z,3.40
2018-03-18T15:04:15.216Z,3.10
2018-03-18T15:06:08.487Z,3.40
2018-03-18T15:07:08.394Z,3.70
2018-03-18T15:09:01.646Z,3.20
2018-03-18T15:10:01.573Z,3.20
2018-03-18T15:11:54.842Z,2.50
2018-03-18T15:12:54.748Z,2.80
2018-03-18T15:14:48.002Z,2.70
2018-03-18T15:15:47.925Z,2.60
2018-03-18T15:17:41.311Z,3.10
2018-03-18T15:18:41.103Z,3.10
2018-03-18T15:20:34.352Z,3.30
2018-03-18T15:21:34.276Z,3.10
2018-03-18T15:23:27.549Z,3.50
2018-03-18T15:24:27.453Z,3.50
2018-03-18T15:26:20.718Z,3.30
2018-03-18T15:27:20.664Z,3.20
2018-03-18T15:29:14.016Z,3.30
2018-03-18T15:30:13.810Z,3.50
2018-03-18T15:32:07.079Z,3.70
2018-03-18T15:33:06.984Z,3.30
2018-03-18T15:35:00.300Z,3.20
2018-03-18T15:36:00.221Z,3.30
2018-03-18T15:37:53.604Z,3.30
2018-03-18T15:38:53.400Z,3.40
2018-03-18T15:40:46.650Z,2.80
2018-03-18T15:41:46.574Z,2.80
2018-03-18T15:43:39.957Z,2.50
2018-03-18T15:44:39.754Z,2.60
2018-03-18T15:46:33.118Z,3.30
2018-03-18T15:47:32.921Z,2.90
2018-03-18T15:49:26.304Z,3.20
2018-03-18T15:50:26.098Z,3.20
2018-03-18T15:52:19.349Z,2.40
2018-03-18T15:53:19.293Z,2.90
2018-03-18T15:55:12.657Z,2.70
2018-03-18T15:56:12.477Z,3.30
2018-03-18T15:58:05.726Z,2.90
2018-03-18T15:59:05.647Z,3.20
2018-03-18T16:00:58.924Z,3.20
2018-03-18T16:01:58.830Z,2.80
2018-03-18T16:03:52.099Z,3.10
2018-03-18T16:04:52.007Z,2.30
2018-03-18T16:06:45.252Z,2.80
2018-03-18T16:07:45.175Z,3.30
2018-03-18T16:09:38.447Z,3.10
2018-03-18T16:10:38.350Z,3.10
2018-03-18T16:12:31.716Z,3.10
2018-03-18T16:13:31.529Z,2.90
2018-03-18T16:15:24.796Z,2.40
2018-03-18T16:16:24.705Z,3.00
2018-03-18T16:18:17.956Z,3.10
2018-03-18T16:19:17.880Z,3.30
2018-03-18T16:21:11.263Z,3.50
2018-03-18T16:22:11.058Z,3.50
2018-03-18T16:24:04.422Z,2.40
2018-03-18T16:25:04.238Z,3.00
2018-03-18T16:26:57.508Z,3.50
2018-03-18T16:27:57.411Z,3.20
2018-03-18T16:29:50.682Z,2.80
2018-03-18T16:30:50.587Z,3.10
2018-03-18T16:32:43.839Z,3.10
2018-03-18T16:33:43.763Z,3.40
2018-03-18T16:35:37.146Z,3.40
2018-03-18T16:36:36.936Z,3.00
2018-03-18T16:38:30.190Z,3.30
2018-03-18T16:39:30.113Z,3.10
2018-03-18T16:41:23.385Z,3.00
2018-03-18T16:42:23.290Z,3.00
2018-03-18T16:44:16.546Z,3.30
2018-03-18T16:45:16.465Z,3.20
2018-03-18T16:47:09.848Z,2.90
2018-03-18T16:48:09.634Z,2.90
2018-03-18T16:50:02.892Z,3.10
2018-03-18T16:51:02.809Z,3.20
2018-03-18T16:52:56.078Z,3.00
2018-03-18T16:53:55.982Z,3.40
2018-03-18T16:55:49.334Z,3.00
2018-03-18T16:56:49.159Z,2.90
2018-03-18T16:58:42.410Z,3.20
2018-03-18T16:59:42.335Z,3.30
2018-03-18T17:01:35.610Z,3.00
2018-03-18T17:02:35.513Z,2.90
2018-03-18T17:04:28.761Z,2.20
2018-03-18T17:05:28.685Z,2.50
2018-03-18T17:07:21.946Z,2.60
2018-03-18T17:08:21.855Z,3.30
2018-03-18T17:10:15.104Z,3.40
2018-03-18T17:11:15.027Z,2.30
2018-03-18T17:13:08.313Z,2.90
2018-03-18T17:14:08.219Z,3.00
2018-03-18T17:16:01.469Z,3.20
2018-03-18T17:17:01.395Z,3.30
2018-03-18T17:18:54.670Z,3.30
2018-03-18T17:19:54.577Z,3.50
2018-03-18T17:21:47.969Z,3.40
2018-03-18T17:22:47.754Z,3.50
2018-03-18T17:24:41.000Z,3.30
2018-03-18T17:25:40.925Z,2.50
2018-03-18T17:27:34.195Z,2.80
2018-03-18T17:28:34.100Z,3.10
2018-03-18T17:30:27.467Z,2.90
2018-03-18T17:31:27.274Z,2.80
2018-03-18T17:33:20.665Z,2.90
2018-03-18T17:34:20.516Z,3.10
2018-03-18T17:36:13.698Z,2.40
2018-03-18T17:37:13.623Z,2.60
2018-03-18T17:39:07.003Z,2.80
2018-03-18T17:40:06.797Z,3.30
2018-03-18T17:42:00.047Z,3.10
2018-03-18T17:42:59.970Z,2.90
2018-03-18T17:44:53.237Z,3.40
2018-03-18T17:45:53.143Z,3.40
2018-03-18T17:47:46.506Z,3.20
2018-03-18T17:48:46.321Z,2.70
2018-03-18T17:50:39.588Z,3.50
2018-03-18T17:51:39.493Z,2.50
2018-03-18T17:53:32.780Z,2.70
2018-03-18T17:54:32.669Z,2.50
2018-03-18T17:56:25.922Z,3.10
2018-03-18T17:57:25.899Z,3.30
2018-03-18T17:59:19.225Z,3.40
2018-03-18T18:00:19.016Z,3.30
2018-03-18T18:02:12.267Z,2.20
2018-03-18T18:03:12.191Z,2.70
2018-03-18T18:05:05.467Z,3.00
2018-03-18T18:06:05.363Z,3.10
2018-03-18T18:07:58.611Z,3.30
2018-03-18T18:08:58.536Z,3.20
2018-03-18T18:10:51.806Z,3.10
2018-03-18T18:11:51.711Z,3.00
2018-03-18T18:13:44.968Z,2.60
2018-03-18T18:14:44.885Z,2.20
2018-03-18T18:16:38.147Z,2.50
2018-03-18T18:17:38.053Z,2.80
2018-03-18T18:19:31.395Z,2.50
2018-03-18T18:20:31.301Z,3.00
2018-03-18T18:22:24.552Z,2.80
2018-03-18T18:23:24.475Z,2.60
2018-03-18T18:25:17.743Z,2.60
2018-03-18T18:26:17.648Z,2.90
2018-03-18T18:28:10.919Z,3.00
2018-03-18T18:29:10.831Z,2.70
2018-03-18T18:31:04.097Z,3.30
2018-03-18T18:32:04.004Z,3.40
2018-03-18T18:33:57.409Z,2.70
2018-03-18T18:34:57.303Z,2.90
2018-03-18T18:36:50.572Z,2.30
2018-03-18T18:37:50.488Z,2.90
2018-03-18T18:39:43.842Z,2.60
2018-03-18T18:40:43.647Z,2.70
2018-03-18T18:42:36.923Z,3.40
2018-03-18T18:43:36.828Z,3.30
2018-03-18T18:45:30.120Z,2.90
2018-03-18T18:46:30.025Z,2.70
2018-03-18T18:48:23.399Z,3.10
2018-03-18T18:49:23.302Z,3.00
2018-03-18T18:51:16.555Z,3.20
2018-03-18T18:52:16.478Z,3.10
2018-03-18T18:54:09.747Z,3.10
2018-03-18T18:55:09.651Z,2.40
2018-03-18T18:57:02.931Z,3.10
2018-03-18T18:58:02.816Z,3.00
2018-03-18T18:59:56.068Z,2.30
2018-03-18T19:00:55.990Z,2.60
2018-03-18T19:02:49.414Z,3.30
2018-03-18T19:03:49.308Z,3.30
2018-03-18T19:05:42.671Z,2.20
2018-03-18T19:06:42.481Z,2.40
2018-03-18T19:08:35.751Z,3.00
2018-03-18T19:09:35.654Z,2.80
2018-03-18T19:11:28.904Z,3.00
2018-03-18T19:12:28.830Z,3.30